createdAt,value
2023-03-22T00:04:14.156Z,6.22
2023-03-22T00:09:22.338Z,7.50
2023-03-22T00:14:27.889Z,6.50
2023-03-22T00:19:34.149Z,8.15
2023-03-22T00:24:42.338Z,6.07
2023-03-22T00:29:47.804Z,7.55
2023-03-22T00:34:54.868Z,7.50
2023-03-22T00:40:04.739Z,8.60
2023-03-22T00:45:13.366Z,7.40
2023-03-22T00:50:18.773Z,10.67
2023-03-22T00:55:28.185Z,8.53
2023-03-22T01:00:36.718Z,8.50
2023-03-22T01:05:42.250Z,8.37
2023-03-22T01:10:52.395Z,13.52
2023-03-22T01:15:57.813Z,12.10
2023-03-22T01:21:03.422Z,8.20
2023-03-22T01:26:11.936Z,8.35
2023-03-22T01:31:17.374Z,11.45
2023-03-22T01:36:22.771Z,11.43
2023-03-22T01:41:34.936Z,7.65
2023-03-22T01:46:48.545Z,10.17
2023-03-22T01:51:56.526Z,9.43
2023-03-22T01:57:23.844Z,11.15
2023-03-22T02:02:31.144Z,8.63
2023-03-22T02:07:52.251Z,11.45
2023-03-22T02:13:23.739Z,10.90
2023-03-22T02:18:54.810Z,8.73
2023-03-22T02:24:49.586Z,9.90
2023-03-22T02:30:05.154Z,13.70
2023-03-22T02:35:40.431Z,10.63
2023-03-22T02:40:55.237Z,11.02
2023-03-22T02:46:09.371Z,13.43
2023-03-22T02:51:21.458Z,11.10
2023-03-22T02:56:32.884Z,9.53
2023-03-22T03:01:43.439Z,10.85
2023-03-22T03:06:52.736Z,11.65
2023-03-22T03:12:00.859Z,10.90
2023-03-22T03:17:25.795Z,11.50
2023-03-22T03:22:42.499Z,10.03
2023-03-22T03:27:57.750Z,11.13
2023-03-22T03:33:09.447Z,10.48
2023-03-22T03:38:18.762Z,15.07
2023-03-22T03:43:27.692Z,10.30
2023-03-22T03:48:36.801Z,12.00
2023-03-22T03:53:42.251Z,14.02
2023-03-22T03:58:53.172Z,10.43
2023-03-22T04:03:59.035Z,11.63
2023-03-22T04:09:14.576Z,10.82
2023-03-22T04:14:27.732Z,11.40
2023-03-22T04:19:36.812Z,11.85
2023-03-22T04:24:42.503Z,12.88
2023-03-22T04:29:51.362Z,10.83
2023-03-22T04:35:15.244Z,10.35
2023-03-22T04:40:21.803Z,10.97
2023-03-22T04:45:42.541Z,10.55
2023-03-22T04:50:53.431Z,9.95
2023-03-22T04:56:05.559Z,8.67
2023-03-22T05:01:15.817Z,7.32
2023-03-22T05:06:23.339Z,8.57
2023-03-22T05:11:40.825Z,10.15
2023-03-22T05:17:11.675Z,9.60
2023-03-22T05:22:19.363Z,10.13
2023-03-22T05:27:31.686Z,10.45
2023-03-22T05:33:03.221Z,11.47
2023-03-22T05:38:13.664Z,10.60
2023-03-22T05:43:24.886Z,10.38
2023-03-22T05:48:34.384Z,9.30
2023-03-22T05:53:40.063Z,10.30
2023-03-22T05:58:49.773Z,10.02
2023-03-22T06:03:59.860Z,9.00
2023-03-22T06:09:17.560Z,10.43
2023-03-22T06:14:27.598Z,9.77
2023-03-22T06:19:48.395Z,8.02
2023-03-22T06:24:54.926Z,9.98
2023-03-22T06:30:13.500Z,9.67
2023-03-22T06:35:39.608Z,9.52
2023-03-22T06:40:47.539Z,9.33
2023-03-22T06:45:53.205Z,10.10
2023-03-22T06:51:08.341Z,13.45
2023-03-22T06:56:17.564Z,14.77
2023-03-22T07:01:28.139Z,10.88
2023-03-22T07:06:36.874Z,10.95
2023-03-22T07:11:45.309Z,11.27
2023-03-22T07:16:50.854Z,10.25
2023-03-22T07:22:00.997Z,6.93
2023-03-22T07:27:08.363Z,6.10
2023-03-22T07:32:14.344Z,10.75
2023-03-22T07:37:36.836Z,6.07
2023-03-22T07:42:47.210Z,10.15
2023-03-22T07:48:01.932Z,7.23
2023-03-22T07:53:36.745Z,7.70
2023-03-22T07:58:42.594Z,7.63
2023-03-22T08:03:48.111Z,10.00
2023-03-22T08:09:21.466Z,4.97
2023-03-22T08:14:36.269Z,8.75
2023-03-22T08:19:45.612Z,6.80
2023-03-22T08:24:58.945Z,4.72
2023-03-22T08:30:12.437Z,3.90
2023-03-22T08:35:18.026Z,3.17
2023-03-22T08:40:29.746Z,5.03
2023-03-22T08:45:39.291Z,4.03
2023-03-22T08:50:50.380Z,2.95
2023-03-22T08:56:07.953Z,5.07
2023-03-22T09:01:37.491Z,5.70
2023-03-22T09:06:47.083Z,2.05
2023-03-22T09:11:56.317Z,1.70
2023-03-22T09:17:02.101Z,2.57
2023-03-22T09:22:10.132Z,1.23
2023-03-22T09:27:24.433Z,3.70
2023-03-22T09:32:30.055Z,1.87
2023-03-22T09:37:41.733Z,4.75
2023-03-22T09:42:52.700Z,3.60
2023-03-22T09:48:00.562Z,6.90
2023-03-22T09:53:13.849Z,4.70
2023-03-22T09:58:28.770Z,5.97
2023-03-22T10:04:02.148Z,5.90
2023-03-22T10:09:14.201Z,5.25
2023-03-22T10:14:33.940Z,4.90
2023-03-22T10:19:46.360Z,1.47
2023-03-22T10:24:55.084Z,2.33
2023-03-22T10:30:06.824Z,4.43
2023-03-22T10:35:16.825Z,2.80
2023-03-22T10:40:29.013Z,3.55
2023-03-22T10:45:39.309Z,2.63
2023-03-22T10:50:47.320Z,4.00
2023-03-22T10:55:52.652Z,4.80
2023-03-22T11:01:02.525Z,3.50
2023-03-22T11:06:11.114Z,4.90
2023-03-22T11:11:23.491Z,5.22
2023-03-22T11:16:33.453Z,6.40
2023-03-22T11:21:38.803Z,5.20
2023-03-22T11:26:45.058Z,2.17
2023-03-22T11:32:00.838Z,2.60
2023-03-22T11:37:11.326Z,4.47
2023-03-22T11:42:22.034Z,4.03
2023-03-22T11:47:35.756Z,6.23
2023-03-22T11:52:41.085Z,2.97
2023-03-22T11:57:46.435Z,4.57
2023-03-22T12:02:57.563Z,2.73
2023-03-22T12:08:08.617Z,2.40
2023-03-22T12:13:21.979Z,2.72
2023-03-22T12:18:33.620Z,2.90
2023-03-22T12:23:38.930Z,2.43
2023-03-22T12:28:49.898Z,4.05
2023-03-22T12:33:59.636Z,2.10
2023-03-22T12:39:06.600Z,1.83
2023-03-22T12:44:20.177Z,5.22
2023-03-22T12:49:34.931Z,2.50
2023-03-22T12:54:41.345Z,3.47
2023-03-22T12:59:48.697Z,4.20
2023-03-22T13:04:59.253Z,3.90
2023-03-22T13:10:41.637Z,4.17
2023-03-22T13:16:02.301Z,3.60
2023-03-22T13:21:19.282Z,2.70
2023-03-22T13:26:37.579Z,2.25
2023-03-22T13:31:46.997Z,6.05
2023-03-22T13:36:57.719Z,2.87
2023-03-22T13:42:08.817Z,3.60
2023-03-22T13:47:33.255Z,3.90
2023-03-22T13:52:44.105Z,3.00
2023-03-22T13:57:58.863Z,2.53
2023-03-22T14:03:09.684Z,3.53
2023-03-22T14:08:28.396Z,3.93
2023-03-22T14:13:41.239Z,3.38
2023-03-22T14:18:48.376Z,2.07
2023-03-22T14:55:02.160Z,3.37
2023-03-22T15:00:16.555Z,2.90
2023-03-22T15:05:25.372Z,2.57
2023-03-22T15:10:34.428Z,5.93
2023-03-22T15:15:42.414Z,3.17
2023-03-22T15:20:49.396Z,1.43
2023-03-22T15:26:00.678Z,3.57
2023-03-22T15:31:08.036Z,6.20
2023-03-22T15:36:22.261Z,5.43
2023-03-22T15:41:43.366Z,4.33
2023-03-22T15:46:57.726Z,3.85
2023-03-22T15:52:12.633Z,4.50
2023-03-22T15:57:27.257Z,1.97
2023-03-22T16:02:34.388Z,3.80
2023-03-22T16:07:40.153Z,3.87
2023-03-22T16:12:48.766Z,4.87
2023-03-22T16:18:00.226Z,3.85
2023-03-22T16:23:06.446Z,2.60
2023-03-22T16:28:17.770Z,2.92
2023-03-22T16:33:23.427Z,3.30
2023-03-22T16:38:29.210Z,6.87
2023-03-22T16:43:37.559Z,3.83
2023-03-22T16:48:43.650Z,2.67
2023-03-22T16:53:49.671Z,3.03
2023-03-22T16:59:06.936Z,4.43
2023-03-22T17:04:12.839Z,2.60
2023-03-22T17:09:18.287Z,5.77
2023-03-22T17:14:26.466Z,2.90
2023-03-22T17:19:31.899Z,2.47
2023-03-22T17:24:38.696Z,2.43
2023-03-22T17:29:46.706Z,3.20
2023-03-22T17:34:52.135Z,3.97
2023-03-22T17:40:20.679Z,5.27
2023-03-22T17:45:28.261Z,5.38
2023-03-22T17:50:36.842Z,3.90
2023-03-22T18:00:51.187Z,5.90
2023-03-22T18:05:56.711Z,2.90
2023-03-22T18:11:02.267Z,6.53
2023-03-22T18:16:11.866Z,2.97
2023-03-22T18:21:18.166Z,3.63
2023-03-22T18:26:29.411Z,4.93
2023-03-22T18:31:39.034Z,5.45
2023-03-22T18:36:44.655Z,2.30
2023-03-22T18:41:53.343Z,3.67
2023-03-22T18:47:06.677Z,4.70
2023-03-22T18:52:39.977Z,4.40
2023-03-22T18:57:39.222Z,3.20
2023-03-22T19:02:47.972Z,3.35
2023-03-22T19:08:11.743Z,4.23
2023-03-22T19:13:20.980Z,4.17
2023-03-22T19:18:28.981Z,3.35
2023-03-22T19:23:34.856Z,3.93
2023-03-22T19:28:40.815Z,3.77
2023-03-22T19:33:56.244Z,4.07
2023-03-22T19:39:02.298Z,4.60
2023-03-22T19:44:08.298Z,4.03
2023-03-22T19:49:16.516Z,3.95
2023-03-22T19:59:31.807Z,5.87
2023-03-22T20:04:40.768Z,3.38
2023-03-22T20:09:46.386Z,6.30
2023-03-22T20:14:52.151Z,3.67
2023-03-22T20:20:00.425Z,3.88
2023-03-22T20:25:06.773Z,3.17
2023-03-22T20:30:13.998Z,6.93
2023-03-22T20:35:22.105Z,6.47
2023-03-22T20:40:27.628Z,3.53
2023-03-22T20:45:34.588Z,6.22
2023-03-22T20:50:42.994Z,6.03
2023-03-22T20:55:50.458Z,5.67
2023-03-22T21:00:56.154Z,3.35
2023-03-22T21:06:07.556Z,7.53
2023-03-22T21:11:15.931Z,4.17
2023-03-22T21:16:22.662Z,5.80
2023-03-22T21:21:32.130Z,4.90
2023-03-22T21:26:39.417Z,4.97
2023-03-22T21:31:44.981Z,5.75
2023-03-22T21:36:52.958Z,4.03
2023-03-22T21:42:02.376Z,4.47
2023-03-22T21:47:08.257Z,5.82
2023-03-22T21:52:16.224Z,4.17
2023-03-22T21:57:22.357Z,4.15
2023-03-22T22:02:27.998Z,4.93
2023-03-22T22:07:37.435Z,4.40
2023-03-22T22:12:43.081Z,5.72
2023-03-22T22:17:48.586Z,4.63
2023-03-22T22:22:56.809Z,3.90
2023-03-22T22:28:02.164Z,6.50
2023-03-22T22:33:07.698Z,3.80
2023-03-22T22:38:17.215Z,3.78
2023-03-22T22:43:22.675Z,2.60
2023-03-22T22:48:28.102Z,6.23
2023-03-22T22:53:36.589Z,3.15
2023-03-22T22:58:43.933Z,3.77
2023-03-22T23:03:50.518Z,3.70
2023-03-22T23:09:02.292Z,4.15
2023-03-22T23:14:07.933Z,5.20
2023-03-22T23:19:17.877Z,3.58
2023-03-22T23:24:25.845Z,2.92
2023-03-22T23:29:34.088Z,2.57
2023-03-22T23:34:39.576Z,3.78
2023-03-22T23:39:48.022Z,3.67
2023-03-22T23:44:54.464Z,3.37
2023-03-22T23:50:00.278Z,2.40
2023-03-22T23:55:13.646Z,3.50
